sensor_id;sensor_type;location;lat;lon;timestamp;temperature;humidity
21799;DHT22;24973;47.178;15.316;2022-11-20T00:01:28;2.70;99.90
21799;DHT22;24973;47.178;15.316;2022-11-20T00:04:19;2.70;99.90
21799;DHT22;24973;47.178;15.316;2022-11-20T00:07:08;2.70;99.90
21799;DHT22;24973;47.178;15.316;2022-11-20T00:09:56;2.70;99.90
21799;DHT22;24973;47.178;15.316;2022-11-20T00:12:45;2.70;99.90
21799;DHT22;24973;47.178;15.316;2022-11-20T00:15:34;2.70;99.90
21799;DHT22;24973;47.178;15.316;2022-11-20T00:18:22;2.70;99.90
21799;DHT22;24973;47.178;15.316;2022-11-20T00:21:14;2.70;99.90
21799;DHT22;24973;47.178;15.316;2022-11-20T00:24:04;2.80;99.90
21799;DHT22;24973;47.178;15.316;2022-11-20T00:26:53;2.80;99.90
21799;DHT22;24973;47.178;15.316;2022-11-20T00:29:42;2.80;99.90
21799;DHT22;24973;47.178;15.316;2022-11-20T00:32:31;2.80;99.90
21799;DHT22;24973;47.178;15.316;2022-11-20T00:35:20;2.80;99.90
21799;DHT22;24973;47.178;15.316;2022-11-20T00:38:10;2.80;99.90
21799;DHT22;24973;47.178;15.316;2022-11-20T00:40:59;2.80;99.90
21799;DHT22;24973;47.178;15.316;2022-11-20T00:43:50;2.80;99.90
21799;DHT22;24973;47.178;15.316;2022-11-20T00:46:39;2.80;99.90
21799;DHT22;24973;47.178;15.316;2022-11-20T00:49:28;2.80;99.90
21799;DHT22;24973;47.178;15.316;2022-11-20T00:52:17;2.80;99.90
21799;DHT22;24973;47.178;15.316;2022-11-20T00:55:07;2.80;99.90
21799;DHT22;24973;47.178;15.316;2022-11-20T00:57:56;2.80;99.90
21799;DHT22;24973;47.178;15.316;2022-11-20T01:00:45;2.80;99.90
21799;DHT22;24973;47.178;15.316;2022-11-20T01:03:37;2.80;99.90
21799;DHT22;24973;47.178;15.316;2022-11-20T01:06:28;2.80;99.90
21799;DHT22;24973;47.178;15.316;2022-11-20T01:09:17;2.80;99.90
21799;DHT22;24973;47.178;15.316;2022-11-20T01:12:08;2.80;99.90
21799;DHT22;24973;47.178;15.316;2022-11-20T01:14:56;2.80;99.90
21799;DHT22;24973;47.178;15.316;2022-11-20T01:17:45;2.70;99.90
21799;DHT22;24973;47.178;15.316;2022-11-20T01:20:34;2.80;99.90
21799;DHT22;24973;47.178;15.316;2022-11-20T01:23:23;2.70;99.90
21799;DHT22;24973;47.178;15.316;2022-11-20T01:26:14;2.80;99.90
21799;DHT22;24973;47.178;15.316;2022-11-20T01:29:07;2.80;99.90
21799;DHT22;24973;47.178;15.316;2022-11-20T01:31:57;2.80;99.90
21799;DHT22;24973;47.178;15.316;2022-11-20T01:34:45;2.80;99.90
21799;DHT22;24973;47.178;15.316;2022-11-20T01:37:34;2.80;99.90
21799;DHT22;24973;47.178;15.316;2022-11-20T01:40:23;2.80;99.90
21799;DHT22;24973;47.178;15.316;2022-11-20T01:43:14;2.80;99.90
21799;DHT22;24973;47.178;15.316;2022-11-20T01:46:16;2.80;99.90
21799;DHT22;24973;47.178;15.316;2022-11-20T01:49:13;2.80;99.90
21799;DHT22;24973;47.178;15.316;2022-11-20T01:52:07;2.90;99.90
21799;DHT22;24973;47.178;15.316;2022-11-20T01:55:04;2.90;99.90
21799;DHT22;24973;47.178;15.316;2022-11-20T01:57:55;2.90;99.90
21799;DHT22;24973;47.178;15.316;2022-11-20T02:00:43;2.90;99.90
21799;DHT22;24973;47.178;15.316;2022-11-20T02:03:34;2.80;99.90
21799;DHT22;24973;47.178;15.316;2022-11-20T02:06:24;2.90;99.90
21799;DHT22;24973;47.178;15.316;2022-11-20T02:09:15;2.90;99.90
21799;DHT22;24973;47.178;15.316;2022-11-20T02:12:04;2.90;99.90
21799;DHT22;24973;47.178;15.316;2022-11-20T02:15:14;2.80;99.90
21799;DHT22;24973;47.178;15.316;2022-11-20T02:18:01;2.80;99.90
21799;DHT22;24973;47.178;15.316;2022-11-20T02:20:57;2.90;99.90
21799;DHT22;24973;47.178;15.316;2022-11-20T02:24:04;2.90;99.90
21799;DHT22;24973;47.178;15.316;2022-11-20T02:26:57;2.90;99.90
21799;DHT22;24973;47.178;15.316;2022-11-20T02:29:51;2.80;99.90
21799;DHT22;24973;47.178;15.316;2022-11-20T02:32:41;2.80;99.90
21799;DHT22;24973;47.178;15.316;2022-11-20T02:35:42;2.70;99.90
21799;DHT22;24973;47.178;15.316;2022-11-20T02:38:31;2.80;99.90
21799;DHT22;24973;47.178;15.316;2022-11-20T02:41:21;2.80;99.90
21799;DHT22;24973;47.178;15.316;2022-11-20T02:44:19;2.70;99.90
21799;DHT22;24973;47.178;15.316;2022-11-20T02:47:08;2.70;99.90
21799;DHT22;24973;47.178;15.316;2022-11-20T02:49:56;2.70;99.90
21799;DHT22;24973;47.178;15.316;2022-11-20T02:52:45;2.70;99.90
21799;DHT22;24973;47.178;15.316;2022-11-20T02:55:34;2.70;99.90
21799;DHT22;24973;47.178;15.316;2022-11-20T02:58:25;2.90;99.90
21799;DHT22;24973;47.178;15.316;2022-11-20T03:01:13;2.80;99.90
21799;DHT22;24973;47.178;15.316;2022-11-20T03:04:03;2.70;99.90
21799;DHT22;24973;47.178;15.316;2022-11-20T03:06:52;2.70;99.90
21799;DHT22;24973;47.178;15.316;2022-11-20T03:09:40;2.70;99.90
21799;DHT22;24973;47.178;15.316;2022-11-20T03:12:29;2.70;99.90
21799;DHT22;24973;47.178;15.316;2022-11-20T03:15:19;2.60;99.90
21799;DHT22;24973;47.178;15.316;2022-11-20T03:18:08;2.60;99.90
21799;DHT22;24973;47.178;15.316;2022-11-20T03:20:57;2.60;99.90
21799;DHT22;24973;47.178;15.316;2022-11-20T03:23:47;2.60;99.90
21799;DHT22;24973;47.178;15.316;2022-11-20T03:26:36;2.60;99.90
21799;DHT22;24973;47.178;15.316;2022-11-20T03:29:25;2.60;99.90
21799;DHT22;24973;47.178;15.316;2022-11-20T03:32:15;2.60;99.90
21799;DHT22;24973;47.178;15.316;2022-11-20T03:35:04;2.70;99.90
21799;DHT22;24973;47.178;15.316;2022-11-20T03:37:54;2.70;99.90
21799;DHT22;24973;47.178;15.316;2022-11-20T03:40:42;2.70;99.90
21799;DHT22;24973;47.178;15.316;2022-11-20T03:43:31;2.70;99.90
21799;DHT22;24973;47.178;15.316;2022-11-20T03:46:21;2.80;99.90
21799;DHT22;24973;47.178;15.316;2022-11-20T03:49:11;2.80;99.90
21799;DHT22;24973;47.178;15.316;2022-11-20T03:52:00;2.80;99.90
21799;DHT22;24973;47.178;15.316;2022-11-20T03:54:48;2.80;99.90
21799;DHT22;24973;47.178;15.316;2022-11-20T03:57:37;2.70;99.90
21799;DHT22;24973;47.178;15.316;2022-11-20T04:00:26;2.70;99.90
21799;DHT22;24973;47.178;15.316;2022-11-20T04:03:14;2.60;99.90
21799;DHT22;24973;47.178;15.316;2022-11-20T04:06:06;2.60;99.90
21799;DHT22;24973;47.178;15.316;2022-11-20T04:08:57;2.60;99.90
21799;DHT22;24973;47.178;15.316;2022-11-20T04:11:46;2.60;99.90
21799;DHT22;24973;47.178;15.316;2022-11-20T04:14:35;2.60;99.90
21799;DHT22;24973;47.178;15.316;2022-11-20T04:17:23;2.60;99.90
21799;DHT22;24973;47.178;15.316;2022-11-20T04:20:12;2.60;99.90
21799;DHT22;24973;47.178;15.316;2022-11-20T04:23:03;2.60;99.90
21799;DHT22;24973;47.178;15.316;2022-11-20T04:25:51;2.60;99.90
21799;DHT22;24973;47.178;15.316;2022-11-20T04:28:41;2.60;99.90
21799;DHT22;24973;47.178;15.316;2022-11-20T04:31:31;2.60;99.90
21799;DHT22;24973;47.178;15.316;2022-11-20T04:34:21;2.60;99.90
21799;DHT22;24973;47.178;15.316;2022-11-20T04:37:09;2.60;99.90
21799;DHT22;24973;47.178;15.316;2022-11-20T04:39:59;2.60;99.90
21799;DHT22;24973;47.178;15.316;2022-11-20T04:42:48;2.60;99.90
21799;DHT22;24973;47.178;15.316;2022-11-20T04:45:36;2.60;99.90
21799;DHT22;24973;47.178;15.316;2022-11-20T04:48:26;2.60;99.90
21799;DHT22;24973;47.178;15.316;2022-11-20T04:51:16;2.60;99.90
21799;DHT22;24973;47.178;15.316;2022-11-20T04:54:05;2.70;99.90
21799;DHT22;24973;47.178;15.316;2022-11-20T04:56:55;2.70;99.90
21799;DHT22;24973;47.178;15.316;2022-11-20T04:59:44;2.70;99.90
21799;DHT22;24973;47.178;15.316;2022-11-20T05:02:32;2.70;99.90
21799;DHT22;24973;47.178;15.316;2022-11-20T05:05:21;2.70;99.90
21799;DHT22;24973;47.178;15.316;2022-11-20T05:08:10;2.60;99.90
21799;DHT22;24973;47.178;15.316;2022-11-20T05:11:02;2.60;99.90
21799;DHT22;24973;47.178;15.316;2022-11-20T05:13:54;2.70;99.90
21799;DHT22;24973;47.178;15.316;2022-11-20T05:16:43;2.70;99.90
21799;DHT22;24973;47.178;15.316;2022-11-20T05:19:32;2.70;99.90
21799;DHT22;24973;47.178;15.316;2022-11-20T05:22:20;2.70;99.90
21799;DHT22;24973;47.178;15.316;2022-11-20T05:25:10;2.70;99.90
21799;DHT22;24973;47.178;15.316;2022-11-20T05:27:59;2.60;99.90
21799;DHT22;24973;47.178;15.316;2022-11-20T05:30:49;2.60;99.90
21799;DHT22;24973;47.178;15.316;2022-11-20T05:33:40;2.50;99.90
21799;DHT22;24973;47.178;15.316;2022-11-20T05:36:30;2.50;99.90
21799;DHT22;24973;47.178;15.316;2022-11-20T05:39:18;2.50;99.90
21799;DHT22;24973;47.178;15.316;2022-11-20T05:42:07;2.50;99.90
21799;DHT22;24973;47.178;15.316;2022-11-20T05:45:13;2.50;99.90
21799;DHT22;24973;47.178;15.316;2022-11-20T05:48:03;2.40;99.90
21799;DHT22;24973;47.178;15.316;2022-11-20T05:50:52;2.40;99.90
21799;DHT22;24973;47.178;15.316;2022-11-20T05:53:41;2.40;99.90
21799;DHT22;24973;47.178;15.316;2022-11-20T05:56:34;2.50;99.90
21799;DHT22;24973;47.178;15.316;2022-11-20T05:59:23;2.50;99.90
21799;DHT22;24973;47.178;15.316;2022-11-20T06:02:11;2.50;99.90
21799;DHT22;24973;47.178;15.316;2022-11-20T06:05:02;2.50;99.90
21799;DHT22;24973;47.178;15.316;2022-11-20T06:07:51;2.50;99.90
21799;DHT22;24973;47.178;15.316;2022-11-20T06:10:40;2.50;99.90
21799;DHT22;24973;47.178;15.316;2022-11-20T06:13:28;2.40;99.90
21799;DHT22;24973;47.178;15.316;2022-11-20T06:16:19;2.20;99.90
21799;DHT22;24973;47.178;15.316;2022-11-20T06:19:08;2.20;99.90
21799;DHT22;24973;47.178;15.316;2022-11-20T06:21:58;2.20;99.90
21799;DHT22;24973;47.178;15.316;2022-11-20T06:24:47;2.10;99.90
21799;DHT22;24973;47.178;15.316;2022-11-20T06:27:36;2.30;99.90
21799;DHT22;24973;47.178;15.316;2022-11-20T06:30:25;2.10;99.90
21799;DHT22;24973;47.178;15.316;2022-11-20T06:33:13;2.20;99.90
21799;DHT22;24973;47.178;15.316;2022-11-20T06:36:03;2.20;99.90
21799;DHT22;24973;47.178;15.316;2022-11-20T06:38:57;2.20;99.90
21799;DHT22;24973;47.178;15.316;2022-11-20T06:41:46;2.10;99.90
21799;DHT22;24973;47.178;15.316;2022-11-20T06:44:35;2.10;99.90
21799;DHT22;24973;47.178;15.316;2022-11-20T06:47:24;2.10;99.90
21799;DHT22;24973;47.178;15.316;2022-11-20T06:50:13;2.00;99.90
21799;DHT22;24973;47.178;15.316;2022-11-20T06:53:02;2.10;99.90
21799;DHT22;24973;47.178;15.316;2022-11-20T06:55:56;2.00;99.90
21799;DHT22;24973;47.178;15.316;2022-11-20T06:58:45;2.00;99.90
21799;DHT22;24973;47.178;15.316;2022-11-20T07:01:34;2.00;99.90
21799;DHT22;24973;47.178;15.316;2022-11-20T07:04:23;2.00;99.90
21799;DHT22;24973;47.178;15.316;2022-11-20T07:07:12;2.00;99.90
21799;DHT22;24973;47.178;15.316;2022-11-20T07:10:00;2.10;99.90
21799;DHT22;24973;47.178;15.316;2022-11-20T07:12:51;2.20;99.90
21799;DHT22;24973;47.178;15.316;2022-11-20T07:15:40;2.30;99.90
21799;DHT22;24973;47.178;15.316;2022-11-20T07:18:29;2.20;99.90
21799;DHT22;24973;47.178;15.316;2022-11-20T07:21:18;2.30;99.90
21799;DHT22;24973;47.178;15.316;2022-11-20T07:24:06;2.30;99.90
21799;DHT22;24973;47.178;15.316;2022-11-20T07:26:55;2.30;99.90
21799;DHT22;24973;47.178;15.316;2022-11-20T07:29:45;2.40;99.90
21799;DHT22;24973;47.178;15.316;2022-11-20T07:32:34;2.50;99.90
21799;DHT22;24973;47.178;15.316;2022-11-20T07:35:23;2.60;99.90
21799;DHT22;24973;47.178;15.316;2022-11-20T07:38:12;2.70;99.90
21799;DHT22;24973;47.178;15.316;2022-11-20T07:41:01;2.70;99.90
21799;DHT22;24973;47.178;15.316;2022-11-20T07:43:49;2.80;99.90
21799;DHT22;24973;47.178;15.316;2022-11-20T07:46:39;1.00;99.90
21799;DHT22;24973;47.178;15.316;2022-11-20T07:49:28;2.70;99.90
21799;DHT22;24973;47.178;15.316;2022-11-20T07:52:17;2.80;99.90
21799;DHT22;24973;47.178;15.316;2022-11-20T07:55:06;2.80;99.90
21799;DHT22;24973;47.178;15.316;2022-11-20T07:57:56;2.80;99.90
21799;DHT22;24973;47.178;15.316;2022-11-20T08:00:45;2.80;99.90
21799;DHT22;24973;47.178;15.316;2022-11-20T08:03:36;2.80;99.90
21799;DHT22;24973;47.178;15.316;2022-11-20T08:06:25;2.80;99.90
21799;DHT22;24973;47.178;15.316;2022-11-20T08:09:14;2.80;99.90
21799;DHT22;24973;47.178;15.316;2022-11-20T08:12:03;2.80;99.90
21799;DHT22;24973;47.178;15.316;2022-11-20T08:15:09;2.90;99.90
21799;DHT22;24973;47.178;15.316;2022-11-20T08:18:00;3.00;99.90
21799;DHT22;24973;47.178;15.316;2022-11-20T08:21:11;3.00;99.90
21799;DHT22;24973;47.178;15.316;2022-11-20T08:23:59;3.10;99.90
21799;DHT22;24973;47.178;15.316;2022-11-20T08:26:48;3.10;99.90
21799;DHT22;24973;47.178;15.316;2022-11-20T08:29:37;3.20;99.90
21799;DHT22;24973;47.178;15.316;2022-11-20T08:32:25;3.30;99.90
21799;DHT22;24973;47.178;15.316;2022-11-20T08:35:14;3.30;99.90
21799;DHT22;24973;47.178;15.316;2022-11-20T08:38:05;3.30;99.90
21799;DHT22;24973;47.178;15.316;2022-11-20T08:40:56;3.30;99.90
21799;DHT22;24973;47.178;15.316;2022-11-20T08:44:04;3.40;99.90
21799;DHT22;24973;47.178;15.316;2022-11-20T08:46:54;3.40;99.90
21799;DHT22;24973;47.178;15.316;2022-11-20T08:49:44;3.50;99.90
21799;DHT22;24973;47.178;15.316;2022-11-20T08:52:32;3.50;99.90
21799;DHT22;24973;47.178;15.316;2022-11-20T08:55:25;3.50;99.90
21799;DHT22;24973;47.178;15.316;2022-11-20T08:58:14;3.60;99.90
21799;DHT22;24973;47.178;15.316;2022-11-20T09:01:03;3.70;99.90
21799;DHT22;24973;47.178;15.316;2022-11-20T09:03:52;3.60;99.90
21799;DHT22;24973;47.178;15.316;2022-11-20T09:06:43;3.70;99.90
21799;DHT22;24973;47.178;15.316;2022-11-20T09:09:32;3.70;99.90
21799;DHT22;24973;47.178;15.316;2022-11-20T09:12:22;3.80;99.90
21799;DHT22;24973;47.178;15.316;2022-11-20T09:15:11;3.90;99.90
21799;DHT22;24973;47.178;15.316;2022-11-20T09:18:01;4.00;99.90
21799;DHT22;24973;47.178;15.316;2022-11-20T09:20:51;4.10;99.90
21799;DHT22;24973;47.178;15.316;2022-11-20T09:23:40;4.10;99.90
21799;DHT22;24973;47.178;15.316;2022-11-20T09:26:29;4.20;99.90
21799;DHT22;24973;47.178;15.316;2022-11-20T09:29:19;4.20;99.90
21799;DHT22;24973;47.178;15.316;2022-11-20T09:32:08;4.20;99.90
21799;DHT22;24973;47.178;15.316;2022-11-20T09:34:56;4.20;99.90
21799;DHT22;24973;47.178;15.316;2022-11-20T09:37:50;4.30;99.90
21799;DHT22;24973;47.178;15.316;2022-11-20T09:40:43;4.50;99.90
21799;DHT22;24973;47.178;15.316;2022-11-20T09:43:46;4.60;99.90
21799;DHT22;24973;47.178;15.316;2022-11-20T09:46:47;4.70;99.90
21799;DHT22;24973;47.178;15.316;2022-11-20T09:49:53;4.80;99.90
21799;DHT22;24973;47.178;15.316;2022-11-20T09:52:57;4.80;99.90
21799;DHT22;24973;47.178;15.316;2022-11-20T09:55:54;4.80;99.90
21799;DHT22;24973;47.178;15.316;2022-11-20T09:58:45;6.70;99.90
21799;DHT22;24973;47.178;15.316;2022-11-20T10:01:39;5.00;99.90
21799;DHT22;24973;47.178;15.316;2022-11-20T10:04:31;5.10;99.90
21799;DHT22;24973;47.178;15.316;2022-11-20T10:07:26;5.20;99.90
21799;DHT22;24973;47.178;15.316;2022-11-20T10:10:28;5.40;99.90
21799;DHT22;24973;47.178;15.316;2022-11-20T10:13:38;5.50;99.90
21799;DHT22;24973;47.178;15.316;2022-11-20T10:16:36;5.70;99.90
21799;DHT22;24973;47.178;15.316;2022-11-20T10:19:39;5.80;99.90
21799;DHT22;24973;47.178;15.316;2022-11-20T10:22:44;6.00;99.90
21799;DHT22;24973;47.178;15.316;2022-11-20T10:25:45;6.00;99.90
21799;DHT22;24973;47.178;15.316;2022-11-20T10:28:48;6.00;99.90
21799;DHT22;24973;47.178;15.316;2022-11-20T10:31:50;6.10;99.90
21799;DHT22;24973;47.178;15.316;2022-11-20T10:34:48;6.00;99.90
21799;DHT22;24973;47.178;15.316;2022-11-20T10:37:42;6.10;99.90
21799;DHT22;24973;47.178;15.316;2022-11-20T10:40:35;6.20;99.90
21799;DHT22;24973;47.178;15.316;2022-11-20T10:43:32;6.30;99.90
21799;DHT22;24973;47.178;15.316;2022-11-20T10:46:22;6.40;99.90
21799;DHT22;24973;47.178;15.316;2022-11-20T10:49:15;6.50;99.90
21799;DHT22;24973;47.178;15.316;2022-11-20T10:52:11;6.60;99.90
21799;DHT22;24973;47.178;15.316;2022-11-20T10:55:07;6.70;99.90
21799;DHT22;24973;47.178;15.316;2022-11-20T10:58:07;6.80;99.90
21799;DHT22;24973;47.178;15.316;2022-11-20T11:01:03;6.80;99.90
21799;DHT22;24973;47.178;15.316;2022-11-20T11:03:54;6.80;99.90
21799;DHT22;24973;47.178;15.316;2022-11-20T11:06:48;6.90;99.90
21799;DHT22;24973;47.178;15.316;2022-11-20T11:09:40;7.00;99.90
21799;DHT22;24973;47.178;15.316;2022-11-20T11:12:32;7.20;99.90
21799;DHT22;24973;47.178;15.316;2022-11-20T11:15:30;7.50;99.90
21799;DHT22;24973;47.178;15.316;2022-11-20T11:18:25;7.80;99.90
21799;DHT22;24973;47.178;15.316;2022-11-20T11:21:23;8.20;99.90
21799;DHT22;24973;47.178;15.316;2022-11-20T11:24:22;9.10;99.90
21799;DHT22;24973;47.178;15.316;2022-11-20T11:27:27;9.90;99.90
21799;DHT22;24973;47.178;15.316;2022-11-20T11:30:17;10.70;99.90
21799;DHT22;24973;47.178;15.316;2022-11-20T11:33:10;11.30;99.90
21799;DHT22;24973;47.178;15.316;2022-11-20T11:36:01;11.60;99.90
21799;DHT22;24973;47.178;15.316;2022-11-20T11:38:52;12.00;99.90
21799;DHT22;24973;47.178;15.316;2022-11-20T11:41:44;12.30;99.90
21799;DHT22;24973;47.178;15.316;2022-11-20T11:44:34;12.80;99.90
21799;DHT22;24973;47.178;15.316;2022-11-20T11:47:45;13.20;99.90
21799;DHT22;24973;47.178;15.316;2022-11-20T11:50:35;13.60;99.90
21799;DHT22;24973;47.178;15.316;2022-11-20T11:53:26;13.50;99.90
21799;DHT22;24973;47.178;15.316;2022-11-20T11:56:15;13.40;99.90
21799;DHT22;24973;47.178;15.316;2022-11-20T11:59:14;13.40;99.90
21799;DHT22;24973;47.178;15.316;2022-11-20T12:02:15;13.40;99.90
21799;DHT22;24973;47.178;15.316;2022-11-20T12:05:17;13.20;99.90
21799;DHT22;24973;47.178;15.316;2022-11-20T12:08:14;12.90;99.90
21799;DHT22;24973;47.178;15.316;2022-11-20T12:11:12;12.60;99.90
21799;DHT22;24973;47.178;15.316;2022-11-20T12:14:09;12.20;99.90
21799;DHT22;24973;47.178;15.316;2022-11-20T12:17:03;12.30;99.90
21799;DHT22;24973;47.178;15.316;2022-11-20T12:19:52;12.20;99.90
21799;DHT22;24973;47.178;15.316;2022-11-20T12:22:45;11.90;99.90
21799;DHT22;24973;47.178;15.316;2022-11-20T12:25:39;11.70;99.90
21799;DHT22;24973;47.178;15.316;2022-11-20T12:28:44;11.40;99.90
21799;DHT22;24973;47.178;15.316;2022-11-20T12:31:56;11.30;99.90
21799;DHT22;24973;47.178;15.316;2022-11-20T12:35:00;10.90;99.90
21799;DHT22;24973;47.178;15.316;2022-11-20T12:38:08;10.50;99.90
21799;DHT22;24973;47.178;15.316;2022-11-20T12:41:14;10.20;99.90
21799;DHT22;24973;47.178;15.316;2022-11-20T12:44:33;10.00;99.90
21799;DHT22;24973;47.178;15.316;2022-11-20T12:48:06;9.80;99.90
21799;DHT22;24973;47.178;15.316;2022-11-20T12:51:24;9.60;99.90
21799;DHT22;24973;47.178;15.316;2022-11-20T12:54:45;9.50;99.90
21799;DHT22;24973;47.178;15.316;2022-11-20T12:57:48;9.40;99.90
21799;DHT22;24973;47.178;15.316;2022-11-20T13:00:43;9.30;99.90
21799;DHT22;24973;47.178;15.316;2022-11-20T13:03:43;9.40;99.90
21799;DHT22;24973;47.178;15.316;2022-11-20T13:06:36;9.30;99.90
21799;DHT22;24973;47.178;15.316;2022-11-20T13:09:25;9.40;99.90
21799;DHT22;24973;47.178;15.316;2022-11-20T13:12:19;9.40;99.90
21799;DHT22;24973;47.178;15.316;2022-11-20T13:15:18;9.70;99.90
21799;DHT22;24973;47.178;15.316;2022-11-20T13:18:15;9.80;99.90
21799;DHT22;24973;47.178;15.316;2022-11-20T13:21:15;9.50;99.90
21799;DHT22;24973;47.178;15.316;2022-11-20T13:24:06;9.20;99.90
21799;DHT22;24973;47.178;15.316;2022-11-20T13:27:04;9.00;99.90
21799;DHT22;24973;47.178;15.316;2022-11-20T13:30:10;8.90;99.90
21799;DHT22;24973;47.178;15.316;2022-11-20T13:33:06;8.80;99.90
21799;DHT22;24973;47.178;15.316;2022-11-20T13:35:58;8.80;99.90
21799;DHT22;24973;47.178;15.316;2022-11-20T13:38:51;8.80;99.90
21799;DHT22;24973;47.178;15.316;2022-11-20T13:41:41;8.70;99.90
21799;DHT22;24973;47.178;15.316;2022-11-20T13:44:34;8.70;99.90
21799;DHT22;24973;47.178;15.316;2022-11-20T13:47:27;8.80;99.90
21799;DHT22;24973;47.178;15.316;2022-11-20T13:50:17;9.00;99.90
21799;DHT22;24973;47.178;15.316;2022-11-20T13:53:12;9.20;99.90
21799;DHT22;24973;47.178;15.316;2022-11-20T13:56:18;9.10;99.90
21799;DHT22;24973;47.178;15.316;2022-11-20T13:59:28;9.10;99.90
21799;DHT22;24973;47.178;15.316;2022-11-20T14:02:27;9.90;99.90
21799;DHT22;24973;47.178;15.316;2022-11-20T14:05:20;11.00;99.90
21799;DHT22;24973;47.178;15.316;2022-11-20T14:08:17;12.00;99.90
21799;DHT22;24973;47.178;15.316;2022-11-20T14:11:17;12.70;99.90
21799;DHT22;24973;47.178;15.316;2022-11-20T14:14:17;13.20;99.90
21799;DHT22;24973;47.178;15.316;2022-11-20T14:17:07;13.40;99.90
21799;DHT22;24973;47.178;15.316;2022-11-20T14:20:06;13.50;99.90
21799;DHT22;24973;47.178;15.316;2022-11-20T14:22:59;13.50;99.90
21799;DHT22;24973;47.178;15.316;2022-11-20T14:25:48;13.60;99.90
21799;DHT22;24973;47.178;15.316;2022-11-20T14:28:40;13.80;99.90
21799;DHT22;24973;47.178;15.316;2022-11-20T14:31:30;14.10;99.90
21799;DHT22;24973;47.178;15.316;2022-11-20T14:34:28;14.10;99.90
21799;DHT22;24973;47.178;15.316;2022-11-20T14:37:21;13.60;99.90
21799;DHT22;24973;47.178;15.316;2022-11-20T14:40:25;12.30;99.90
21799;DHT22;24973;47.178;15.316;2022-11-20T14:43:21;11.00;99.90
21799;DHT22;24973;47.178;15.316;2022-11-20T14:46:13;9.60;99.90
21799;DHT22;24973;47.178;15.316;2022-11-20T14:49:03;8.80;99.90
21799;DHT22;24973;47.178;15.316;2022-11-20T14:51:59;8.00;99.90
21799;DHT22;24973;47.178;15.316;2022-11-20T14:54:49;7.50;99.90
21799;DHT22;24973;47.178;15.316;2022-11-20T14:57:39;7.10;99.90
21799;DHT22;24973;47.178;15.316;2022-11-20T15:00:28;6.70;99.90
21799;DHT22;24973;47.178;15.316;2022-11-20T15:03:19;6.40;99.90
21799;DHT22;24973;47.178;15.316;2022-11-20T15:06:11;6.20;99.90
21799;DHT22;24973;47.178;15.316;2022-11-20T15:09:01;6.10;99.90
21799;DHT22;24973;47.178;15.316;2022-11-20T15:11:54;6.40;99.90
21799;DHT22;24973;47.178;15.316;2022-11-20T15:14:44;5.80;99.90
21799;DHT22;24973;47.178;15.316;2022-11-20T15:17:34;6.50;99.90
21799;DHT22;24973;47.178;15.316;2022-11-20T15:20:29;5.70;99.90
21799;DHT22;24973;47.178;15.316;2022-11-20T15:23:19;6.00;99.90
21799;DHT22;24973;47.178;15.316;2022-11-20T15:26:09;6.10;99.90
21799;DHT22;24973;47.178;15.316;2022-11-20T15:29:03;5.40;99.90
21799;DHT22;24973;47.178;15.316;2022-11-20T15:31:52;5.20;99.90
21799;DHT22;24973;47.178;15.316;2022-11-20T15:34:41;5.00;99.90
21799;DHT22;24973;47.178;15.316;2022-11-20T15:37:32;4.90;99.90
21799;DHT22;24973;47.178;15.316;2022-11-20T15:40:21;4.70;99.90
21799;DHT22;24973;47.178;15.316;2022-11-20T15:43:09;4.50;99.90
21799;DHT22;24973;47.178;15.316;2022-11-20T15:46:01;4.30;99.90
21799;DHT22;24973;47.178;15.316;2022-11-20T15:48:52;4.20;99.90
21799;DHT22;24973;47.178;15.316;2022-11-20T15:51:44;4.10;99.90
21799;DHT22;24973;47.178;15.316;2022-11-20T15:54:35;4.10;99.90
21799;DHT22;24973;47.178;15.316;2022-11-20T15:57:24;4.20;99.90
21799;DHT22;24973;47.178;15.316;2022-11-20T16:00:15;4.30;99.90
21799;DHT22;24973;47.178;15.316;2022-11-20T16:03:09;4.20;99.90
21799;DHT22;24973;47.178;15.316;2022-11-20T16:05:58;4.20;99.90
21799;DHT22;24973;47.178;15.316;2022-11-20T16:08:47;4.20;99.90
21799;DHT22;24973;47.178;15.316;2022-11-20T16:11:37;4.20;99.90
21799;DHT22;24973;47.178;15.316;2022-11-20T16:14:27;4.90;99.90
21799;DHT22;24973;47.178;15.316;2022-11-20T16:17:33;4.00;99.90
21799;DHT22;24973;47.178;15.316;2022-11-20T16:20:30;3.90;99.90
21799;DHT22;24973;47.178;15.316;2022-11-20T16:23:19;3.90;99.90
21799;DHT22;24973;47.178;15.316;2022-11-20T16:26:10;3.80;99.90
21799;DHT22;24973;47.178;15.316;2022-11-20T16:29:02;3.70;99.90
21799;DHT22;24973;47.178;15.316;2022-11-20T16:31:52;3.70;99.90
21799;DHT22;24973;47.178;15.316;2022-11-20T16:34:40;3.60;99.90
21799;DHT22;24973;47.178;15.316;2022-11-20T16:37:29;3.60;99.90
21799;DHT22;24973;47.178;15.316;2022-11-20T16:40:18;3.50;99.90
21799;DHT22;24973;47.178;15.316;2022-11-20T16:43:09;3.40;99.90
21799;DHT22;24973;47.178;15.316;2022-11-20T16:46:03;3.30;99.90
21799;DHT22;24973;47.178;15.316;2022-11-20T16:48:53;3.10;99.90
21799;DHT22;24973;47.178;15.316;2022-11-20T16:51:42;3.10;99.90
21799;DHT22;24973;47.178;15.316;2022-11-20T16:54:31;3.00;99.90
21799;DHT22;24973;47.178;15.316;2022-11-20T16:57:20;3.00;99.90
21799;DHT22;24973;47.178;15.316;2022-11-20T17:00:09;3.00;99.90
21799;DHT22;24973;47.178;15.316;2022-11-20T17:03:00;3.00;99.90
21799;DHT22;24973;47.178;15.316;2022-11-20T17:05:49;3.00;99.90
21799;DHT22;24973;47.178;15.316;2022-11-20T17:08:37;2.90;99.90
21799;DHT22;24973;47.178;15.316;2022-11-20T17:11:27;2.90;99.90
21799;DHT22;24973;47.178;15.316;2022-11-20T17:14:16;2.80;99.90
21799;DHT22;24973;47.178;15.316;2022-11-20T17:17:05;2.80;99.90
21799;DHT22;24973;47.178;15.316;2022-11-20T17:19:55;2.90;99.90
21799;DHT22;24973;47.178;15.316;2022-11-20T17:22:44;3.00;99.90
21799;DHT22;24973;47.178;15.316;2022-11-20T17:25:32;3.10;99.90
21799;DHT22;24973;47.178;15.316;2022-11-20T17:28:21;3.10;99.90
21799;DHT22;24973;47.178;15.316;2022-11-20T17:31:12;3.10;99.90
21799;DHT22;24973;47.178;15.316;2022-11-20T17:34:02;3.10;99.90
21799;DHT22;24973;47.178;15.316;2022-11-20T17:36:52;3.10;99.90
21799;DHT22;24973;47.178;15.316;2022-11-20T17:39:41;3.10;99.90
21799;DHT22;24973;47.178;15.316;2022-11-20T17:42:30;3.10;99.90
21799;DHT22;24973;47.178;15.316;2022-11-20T17:45:22;3.10;99.90
21799;DHT22;24973;47.178;15.316;2022-11-20T17:48:11;3.10;99.90
21799;DHT22;24973;47.178;15.316;2022-11-20T17:51:01;3.10;99.90
21799;DHT22;24973;47.178;15.316;2022-11-20T17:53:54;3.00;99.90
21799;DHT22;24973;47.178;15.316;2022-11-20T17:56:44;3.00;99.90
21799;DHT22;24973;47.178;15.316;2022-11-20T17:59:50;3.00;99.90
21799;DHT22;24973;47.178;15.316;2022-11-20T18:02:39;2.90;99.90
21799;DHT22;24973;47.178;15.316;2022-11-20T18:05:27;2.80;99.90
21799;DHT22;24973;47.178;15.316;2022-11-20T18:08:16;2.80;99.90